createdAt,value
2022-09-24T00:01:26.365Z,10.15
2022-09-24T00:04:00.154Z,10.40
2022-09-24T00:06:28.019Z,10.00
2022-09-24T00:08:55.820Z,10.20
2022-09-24T00:11:25.120Z,9.98
2022-09-24T00:13:53.057Z,10.11
2022-09-24T00:16:21.810Z,10.37
2022-09-24T00:18:48.386Z,10.20
2022-09-24T00:21:21.119Z,10.13
2022-09-24T00:23:53.209Z,9.76
2022-09-24T00:26:39.300Z,9.83
2022-09-24T00:29:07.207Z,9.66
2022-09-24T00:31:33.730Z,9.85
2022-09-24T00:34:01.599Z,9.70
2022-09-24T00:36:28.151Z,9.65
2022-09-24T00:38:57.183Z,9.70
2022-09-24T00:41:27.232Z,9.93
2022-09-24T00:43:54.060Z,9.98
2022-09-24T00:46:32.608Z,9.71
2022-09-24T00:49:04.347Z,9.88
2022-09-24T00:51:32.978Z,9.72
2022-09-24T00:54:04.099Z,10.18
2022-09-24T00:56:33.672Z,10.04
2022-09-24T00:59:02.538Z,9.85
2022-09-24T01:01:29.930Z,9.84
2022-09-24T01:03:58.091Z,10.07
2022-09-24T01:06:25.733Z,10.10
2022-09-24T01:08:53.612Z,10.15
2022-09-24T01:11:47.081Z,10.35
2022-09-24T01:14:23.103Z,10.14
2022-09-24T01:17:11.989Z,10.15
2022-09-24T01:20:14.379Z,10.26
2022-09-24T01:22:40.728Z,10.43
2022-09-24T01:25:31.299Z,10.42
2022-09-24T01:28:31.735Z,10.38
2022-09-24T01:31:16.413Z,10.45
2022-09-24T01:33:46.446Z,10.48
2022-09-24T01:36:15.710Z,10.46
2022-09-24T01:38:45.099Z,10.58
2022-09-24T01:41:13.659Z,10.46
2022-09-24T01:43:40.057Z,10.65
2022-09-24T01:46:07.363Z,10.69
2022-09-24T01:48:37.481Z,10.86
2022-09-24T01:51:22.125Z,10.50
2022-09-24T01:53:57.478Z,10.18
2022-09-24T01:56:52.351Z,10.29
2022-09-24T01:59:48.729Z,10.22
2022-09-24T02:02:34.440Z,10.42
2022-09-24T02:05:14.726Z,10.53
2022-09-24T02:07:53.201Z,10.54
2022-09-24T02:10:29.759Z,10.52
2022-09-24T02:12:58.362Z,10.57
2022-09-24T02:15:32.755Z,10.57
2022-09-24T02:18:06.105Z,10.67
2022-09-24T02:20:36.007Z,10.52
2022-09-24T02:23:04.807Z,10.67
2022-09-24T02:25:42.126Z,10.78
2022-09-24T02:28:08.593Z,10.60
2022-09-24T02:30:42.491Z,10.70
2022-09-24T02:33:32.452Z,10.53
2022-09-24T02:35:59.011Z,10.55
2022-09-24T02:38:25.514Z,10.62
2022-09-24T02:40:58.363Z,10.61
2022-09-24T02:43:25.936Z,10.77
2022-09-24T02:45:52.290Z,10.83
2022-09-24T02:48:18.730Z,10.90
2022-09-24T02:50:46.033Z,10.92
2022-09-24T02:53:12.421Z,10.65
2022-09-24T02:55:38.809Z,10.82
2022-09-24T02:58:05.224Z,10.79
2022-09-24T03:00:32.595Z,10.22
2022-09-24T03:02:59.235Z,10.85
2022-09-24T03:05:25.655Z,10.89
2022-09-24T03:07:52.000Z,10.78
2022-09-24T03:10:19.006Z,10.62
2022-09-24T03:12:45.372Z,10.67
2022-09-24T03:15:11.793Z,10.81
2022-09-24T03:17:38.161Z,10.73
2022-09-24T03:20:06.165Z,10.53
2022-09-24T03:22:32.667Z,10.62
2022-09-24T03:24:59.044Z,10.76
2022-09-24T03:27:25.434Z,10.88
2022-09-24T03:30:10.571Z,10.93
2022-09-24T03:32:36.944Z,11.15
2022-09-24T03:35:03.936Z,10.96
2022-09-24T03:37:30.864Z,10.83
2022-09-24T03:39:58.308Z,10.79
2022-09-24T03:42:24.657Z,10.66
2022-09-24T03:44:54.107Z,10.75
2022-09-24T03:47:20.464Z,10.54
2022-09-24T03:49:46.851Z,10.93
2022-09-24T03:52:13.207Z,10.80
2022-09-24T03:54:39.566Z,10.82
2022-09-24T03:57:05.959Z,10.84
2022-09-24T03:59:32.336Z,10.90
2022-09-24T04:01:58.741Z,10.72
2022-09-24T04:04:25.122Z,10.62
2022-09-24T04:06:52.671Z,10.38
2022-09-24T04:09:19.039Z,10.87
2022-09-24T04:11:45.393Z,10.77
2022-09-24T04:14:11.851Z,10.79
2022-09-24T04:16:38.310Z,10.55
2022-09-24T04:19:04.796Z,10.82
2022-09-24T04:21:31.804Z,10.76
2022-09-24T04:23:58.174Z,10.75
2022-09-24T04:26:24.532Z,10.66
2022-09-24T04:28:50.903Z,10.80
2022-09-24T04:31:17.348Z,10.72
2022-09-24T04:33:43.833Z,10.75
2022-09-24T04:36:10.249Z,10.79
2022-09-24T04:38:36.659Z,10.76
2022-09-24T04:41:07.939Z,10.91
2022-09-24T04:43:36.776Z,10.89
2022-09-24T04:46:04.069Z,10.77
2022-09-24T04:48:31.020Z,10.91
2022-09-24T04:50:57.658Z,10.85
2022-09-24T04:53:24.835Z,10.80
2022-09-24T04:55:51.215Z,10.89
2022-09-24T04:58:19.897Z,11.12
2022-09-24T05:00:47.616Z,11.06
2022-09-24T05:03:14.174Z,11.04
2022-09-24T05:05:40.587Z,11.01
2022-09-24T05:08:06.988Z,11.16
2022-09-24T05:10:33.464Z,11.01
2022-09-24T05:13:00.878Z,11.18
2022-09-24T05:15:27.375Z,11.16
2022-09-24T05:17:53.762Z,10.77
2022-09-24T05:20:20.667Z,10.55
2022-09-24T05:22:49.500Z,10.55
2022-09-24T05:25:17.931Z,10.71
2022-09-24T05:27:49.514Z,10.84
2022-09-24T05:30:16.719Z,11.01
2022-09-24T05:32:43.385Z,10.95
2022-09-24T05:35:10.126Z,11.16
2022-09-24T05:37:38.330Z,11.48
2022-09-24T05:40:32.706Z,11.35
2022-09-24T05:43:01.568Z,11.42
2022-09-24T05:45:29.725Z,11.21
2022-09-24T05:47:56.281Z,11.44
2022-09-24T05:50:22.844Z,11.46
2022-09-24T05:52:49.290Z,11.43
2022-09-24T05:55:15.922Z,11.35
2022-09-24T05:57:42.315Z,11.42
2022-09-24T06:00:09.245Z,11.42
2022-09-24T06:02:35.769Z,11.40
2022-09-24T06:05:02.228Z,11.38
2022-09-24T06:07:28.599Z,11.49
2022-09-24T06:09:55.474Z,11.62
2022-09-24T06:12:23.510Z,11.48
2022-09-24T06:14:49.975Z,11.42
2022-09-24T06:17:16.802Z,11.44
2022-09-24T06:19:43.253Z,11.60
2022-09-24T06:22:09.611Z,11.53
2022-09-24T06:24:35.979Z,11.39
2022-09-24T06:27:02.341Z,11.61
2022-09-24T06:29:28.719Z,11.55
2022-09-24T06:31:55.117Z,11.41
2022-09-24T06:34:21.493Z,11.60
2022-09-24T06:36:47.857Z,11.39
2022-09-24T06:39:18.832Z,11.58
2022-09-24T06:41:46.536Z,11.78
2022-09-24T06:44:12.912Z,11.54
2022-09-24T06:46:39.378Z,11.60
2022-09-24T06:49:05.770Z,11.62
2022-09-24T06:51:32.124Z,11.48
2022-09-24T06:53:58.482Z,11.54
2022-09-24T06:56:24.836Z,11.60
2022-09-24T06:58:51.250Z,11.50
2022-09-24T07:01:17.660Z,11.50
2022-09-24T07:03:44.158Z,11.57
2022-09-24T07:06:10.562Z,11.44
2022-09-24T07:08:37.028Z,11.32
2022-09-24T07:11:04.089Z,11.51
2022-09-24T07:13:30.594Z,11.13
2022-09-24T07:15:57.073Z,11.40
2022-09-24T07:18:23.503Z,11.31
2022-09-24T07:20:55.327Z,11.16
2022-09-24T07:23:22.786Z,11.56
2022-09-24T07:25:50.414Z,11.81
2022-09-24T07:28:17.274Z,11.80
2022-09-24T07:30:43.660Z,11.96
2022-09-24T07:33:10.194Z,11.83
2022-09-24T07:35:40.095Z,12.03
2022-09-24T07:38:11.892Z,12.04
2022-09-24T07:40:38.492Z,11.49
2022-09-24T07:43:31.999Z,12.04
2022-09-24T07:45:59.465Z,11.72
2022-09-24T07:48:28.953Z,11.94
2022-09-24T07:50:55.889Z,11.94
2022-09-24T07:53:22.267Z,11.93
2022-09-24T07:55:59.155Z,11.92
2022-09-24T07:58:25.617Z,11.95
2022-09-24T08:00:53.172Z,11.97
2022-09-24T08:03:20.487Z,12.30
2022-09-24T08:05:49.229Z,12.18
2022-09-24T08:08:24.572Z,12.30
2022-09-24T08:10:51.008Z,12.14
2022-09-24T08:13:26.868Z,12.01
2022-09-24T08:16:06.023Z,12.28
2022-09-24T08:18:32.931Z,12.37
2022-09-24T08:21:06.344Z,12.61
2022-09-24T08:23:34.390Z,12.41
2022-09-24T08:26:02.596Z,12.45
2022-09-24T08:28:31.340Z,12.40
2022-09-24T08:31:00.409Z,12.50
2022-09-24T08:33:29.023Z,12.68
2022-09-24T08:35:55.486Z,12.63
2022-09-24T08:38:21.959Z,12.44
2022-09-24T08:41:10.254Z,12.56
2022-09-24T08:44:01.993Z,12.45
2022-09-24T08:47:16.847Z,12.37
2022-09-24T08:49:58.337Z,12.29
2022-09-24T08:52:42.661Z,12.51
2022-09-24T08:55:34.095Z,12.50
2022-09-24T08:58:17.014Z,12.97
2022-09-24T09:00:50.081Z,12.82
2022-09-24T09:03:24.888Z,13.06
2022-09-24T09:06:01.575Z,13.11
2022-09-24T09:09:06.426Z,12.99
2022-09-24T09:11:36.712Z,13.10
2022-09-24T09:14:51.249Z,13.02
2022-09-24T09:17:33.891Z,12.86
2022-09-24T09:20:05.820Z,12.66
2022-09-24T09:22:39.307Z,12.60
2022-09-24T09:25:18.219Z,12.40
2022-09-24T09:27:44.614Z,12.23
2022-09-24T09:30:16.840Z,12.01
2022-09-24T09:33:08.676Z,11.98
2022-09-24T09:35:45.748Z,11.81
2022-09-24T09:38:40.375Z,11.93
2022-09-24T09:41:29.151Z,12.05
2022-09-24T09:44:09.608Z,11.95
2022-09-24T09:46:43.736Z,11.82
2022-09-24T09:49:10.585Z,12.04
2022-09-24T09:51:54.917Z,12.32
2022-09-24T09:54:43.361Z,12.41
2022-09-24T09:57:18.891Z,12.25
2022-09-24T09:59:48.192Z,12.11
2022-09-24T10:02:24.800Z,12.49
2022-09-24T10:05:05.504Z,12.57
2022-09-24T10:07:32.221Z,12.37
2022-09-24T10:10:20.227Z,11.70
2022-09-24T10:13:08.837Z,12.20
2022-09-24T10:15:55.243Z,12.18
2022-09-24T10:18:30.393Z,12.64
2022-09-24T10:20:58.679Z,12.55
2022-09-24T10:23:44.679Z,12.98
2022-09-24T10:26:11.284Z,12.72
2022-09-24T10:29:19.608Z,13.02
2022-09-24T10:32:03.010Z,13.30
2022-09-24T10:34:29.836Z,13.55
2022-09-24T10:37:16.711Z,13.79
2022-09-24T10:39:43.271Z,13.98
2022-09-24T10:42:26.801Z,14.15
2022-09-24T10:44:54.265Z,14.07
2022-09-24T10:47:40.618Z,14.35
2022-09-24T10:50:32.682Z,14.33
2022-09-24T10:53:08.436Z,14.51
2022-09-24T10:55:55.455Z,14.84
2022-09-24T10:58:59.560Z,14.51
2022-09-24T11:01:49.305Z,14.87
2022-09-24T11:05:12.153Z,14.71
2022-09-24T11:07:57.303Z,14.68
2022-09-24T11:10:29.902Z,14.15
2022-09-24T11:13:15.458Z,14.14
2022-09-24T11:16:11.741Z,14.14
2022-09-24T11:19:23.286Z,14.10
2022-09-24T11:22:11.555Z,14.26
2022-09-24T11:24:56.405Z,14.96
2022-09-24T11:27:47.119Z,15.10
2022-09-24T11:30:16.220Z,14.97
2022-09-24T11:33:13.620Z,14.87
2022-09-24T11:35:56.513Z,14.75
2022-09-24T11:38:35.498Z,14.96
2022-09-24T11:41:14.604Z,15.02
2022-09-24T11:43:51.532Z,14.69
2022-09-24T11:46:39.991Z,14.97
2022-09-24T11:49:50.256Z,14.99
2022-09-24T11:52:40.826Z,14.45
2022-09-24T11:55:34.403Z,14.69
2022-09-24T11:58:19.298Z,14.92
2022-09-24T12:01:09.028Z,14.62
2022-09-24T12:03:58.238Z,14.49
2022-09-24T12:06:52.388Z,14.43
2022-09-24T12:09:41.186Z,14.47
2022-09-24T12:12:22.872Z,14.52
2022-09-24T12:15:02.694Z,14.73
2022-09-24T12:17:39.277Z,14.78
2022-09-24T12:20:30.525Z,14.45
2022-09-24T12:23:04.234Z,14.89
2022-09-24T12:26:00.876Z,14.80
2022-09-24T12:28:52.995Z,14.73
2022-09-24T12:32:22.757Z,14.70
2022-09-24T12:34:59.007Z,14.81
2022-09-24T12:37:31.856Z,14.71
2022-09-24T12:40:16.841Z,14.58
2022-09-24T12:42:49.634Z,14.55
2022-09-24T12:45:21.017Z,14.50
2022-09-24T12:47:54.095Z,14.47
2022-09-24T12:50:38.910Z,14.44
2022-09-24T12:53:24.688Z,14.75
2022-09-24T12:55:52.531Z,14.70
2022-09-24T12:58:41.126Z,14.68
2022-09-24T13:01:26.751Z,14.80
2022-09-24T13:04:15.041Z,15.02
2022-09-24T13:06:46.482Z,15.15
2022-09-24T13:09:34.227Z,14.86
2022-09-24T13:12:03.326Z,15.04
2022-09-24T13:14:32.420Z,15.05
2022-09-24T13:17:05.103Z,14.69
2022-09-24T13:19:42.474Z,14.89
2022-09-24T13:22:25.246Z,14.72
2022-09-24T13:25:04.470Z,14.95
2022-09-24T13:27:30.775Z,15.16
2022-09-24T13:30:08.237Z,14.88
2022-09-24T13:32:50.911Z,14.76
2022-09-24T13:35:24.383Z,14.86
2022-09-24T13:37:57.241Z,14.88
2022-09-24T13:40:29.871Z,14.89
2022-09-24T13:43:04.066Z,15.01
2022-09-24T13:45:36.948Z,14.57
2022-09-24T13:48:35.726Z,14.54
2022-09-24T13:51:11.159Z,14.89
2022-09-24T13:53:45.127Z,14.94
2022-09-24T13:56:20.026Z,14.82
2022-09-24T13:58:51.108Z,14.87
2022-09-24T14:01:43.685Z,14.68
2022-09-24T14:04:20.580Z,14.85
2022-09-24T14:06:52.719Z,14.79
2022-09-24T14:09:27.104Z,14.32
2022-09-24T14:11:56.421Z,14.76
2022-09-24T14:14:27.884Z,14.64
2022-09-24T14:17:05.327Z,14.56
2022-09-24T14:19:34.426Z,14.46
2022-09-24T14:22:03.090Z,14.64
2022-09-24T14:25:00.160Z,14.57
2022-09-24T14:27:28.559Z,14.34
2022-09-24T14:29:58.107Z,14.31
2022-09-24T14:32:38.138Z,14.36
2022-09-24T14:35:06.342Z,14.49
2022-09-24T14:37:39.524Z,14.33
2022-09-24T14:40:15.386Z,14.12
2022-09-24T14:43:03.257Z,14.39
2022-09-24T14:45:37.780Z,14.25
2022-09-24T14:48:34.398Z,14.42
2022-09-24T14:51:00.915Z,14.20
2022-09-24T14:53:35.957Z,14.39
2022-09-24T14:56:26.244Z,14.29
2022-09-24T14:58:52.797Z,14.10
2022-09-24T15:01:23.461Z,14.13
2022-09-24T15:03:53.155Z,14.05
2022-09-24T15:06:26.080Z,13.89
2022-09-24T15:09:02.019Z,14.11
2022-09-24T15:11:34.526Z,13.91
2022-09-24T15:14:36.112Z,14.16
2022-09-24T15:17:22.930Z,14.16
2022-09-24T15:19:54.672Z,13.88
2022-09-24T15:22:26.606Z,13.85
2022-09-24T15:25:00.278Z,14.16
2022-09-24T15:27:38.334Z,13.88
2022-09-24T15:30:10.506Z,13.99
2022-09-24T15:32:37.155Z,13.85
2022-09-24T15:35:09.419Z,14.15
2022-09-24T15:37:39.463Z,13.90
2022-09-24T15:40:09.473Z,13.74
2022-09-24T15:42:35.893Z,13.59
2022-09-24T15:45:02.255Z,13.59
2022-09-24T15:47:28.670Z,13.57
2022-09-24T15:49:55.050Z,13.59
2022-09-24T15:52:31.768Z,13.74
2022-09-24T15:55:00.771Z,13.59
2022-09-24T15:57:27.432Z,13.73
2022-09-24T15:59:54.272Z,13.74
2022-09-24T16:02:33.319Z,13.82
2022-09-24T16:05:03.549Z,13.82
2022-09-24T16:07:31.700Z,13.78
2022-09-24T16:09:59.266Z,13.63
2022-09-24T16:12:28.162Z,13.49
2022-09-24T16:14:59.029Z,13.43
2022-09-24T16:17:30.796Z,13.48
2022-09-24T16:19:58.325Z,13.53
2022-09-24T16:22:25.028Z,13.33
2022-09-24T16:24:54.143Z,13.37
2022-09-24T16:27:27.506Z,13.32
2022-09-24T16:29:53.969Z,13.12
2022-09-24T16:32:21.411Z,13.21
2022-09-24T16:34:49.917Z,13.29
2022-09-24T16:37:18.346Z,13.31
2022-09-24T16:39:45.983Z,13.34
2022-09-24T16:42:12.393Z,13.46
2022-09-24T16:44:38.824Z,12.94
2022-09-24T16:47:05.233Z,13.01
2022-09-24T16:49:42.767Z,13.34
2022-09-24T16:52:09.149Z,13.40
2022-09-24T16:54:36.742Z,13.38
2022-09-24T16:57:10.232Z,13.32
2022-09-24T16:59:47.897Z,13.25
2022-09-24T17:02:14.399Z,13.33
2022-09-24T17:04:41.663Z,13.40
2022-09-24T17:07:13.265Z,13.50
2022-09-24T17:10:00.621Z,13.22
2022-09-24T17:12:29.235Z,13.16
2022-09-24T17:14:57.565Z,13.01
2022-09-24T17:17:25.950Z,13.06
2022-09-24T17:19:52.339Z,12.88
2022-09-24T17:22:18.797Z,12.82
2022-09-24T17:24:45.201Z,12.63
2022-09-24T17:27:11.682Z,12.69
2022-09-24T17:29:38.098Z,12.67
2022-09-24T17:32:04.530Z,12.70
2022-09-24T17:34:31.901Z,12.62
2022-09-24T17:37:00.386Z,12.61
2022-09-24T17:39:28.102Z,12.45
2022-09-24T17:41:54.520Z,12.23
2022-09-24T17:44:21.976Z,12.22
2022-09-24T17:46:52.466Z,12.43
2022-09-24T17:49:26.035Z,12.39
2022-09-24T20:03:07.024Z,9.95
2022-09-24T20:05:34.641Z,9.78
2022-09-24T20:08:03.415Z,9.70
2022-09-24T20:10:31.269Z,9.60
2022-09-24T20:12:58.246Z,9.56
2022-09-24T20:15:24.793Z,9.46
2022-09-24T20:17:52.632Z,9.44
2022-09-24T20:20:19.120Z,9.46
2022-09-24T20:22:45.490Z,9.35
2022-09-24T20:25:15.294Z,9.38
2022-09-24T20:27:55.349Z,9.00
2022-09-24T20:30:23.469Z,9.28
2022-09-24T20:32:50.698Z,9.19
2022-09-24T20:35:17.461Z,9.05
2022-09-24T20:37:44.502Z,8.92
2022-09-24T20:40:11.102Z,8.77
2022-09-24T20:42:38.496Z,8.95
2022-09-24T20:45:06.785Z,9.09
2022-09-24T20:47:33.313Z,8.83
2022-09-24T20:49:59.700Z,8.75
2022-09-24T20:52:26.100Z,8.87
2022-09-24T20:54:54.557Z,8.91
2022-09-24T20:57:20.967Z,8.85
2022-09-24T20:59:48.063Z,8.90
2022-09-24T21:02:15.468Z,8.94
2022-09-24T21:04:42.005Z,8.99
2022-09-24T21:07:08.402Z,9.03
2022-09-24T21:09:34.819Z,9.09
2022-09-24T21:12:03.551Z,8.99
2022-09-24T21:14:29.958Z,8.99
2022-09-24T21:16:56.483Z,9.02
2022-09-24T21:19:22.895Z,9.03
2022-09-24T21:21:49.277Z,9.16
2022-09-24T21:24:16.204Z,9.05
2022-09-24T21:26:45.063Z,9.09
2022-09-24T21:29:16.529Z,9.04
2022-09-24T21:31:45.934Z,9.14
2022-09-24T21:34:14.256Z,9.03
2022-09-24T21:36:44.607Z,9.18
2022-09-24T21:39:18.991Z,9.39
2022-09-24T21:41:49.898Z,9.14
2022-09-24T21:44:17.690Z,9.23
2022-09-24T21:46:44.665Z,9.13
2022-09-24T21:49:11.853Z,9.30
2022-09-24T21:51:43.371Z,9.14
2022-09-24T21:54:14.089Z,9.40
2022-09-24T21:56:40.510Z,9.45
2022-09-24T21:59:26.881Z,9.42
2022-09-24T22:01:54.466Z,9.62
2022-09-24T22:04:21.737Z,9.69
2022-09-24T22:06:48.684Z,9.76
2022-09-24T22:09:15.819Z,9.78
2022-09-24T22:11:42.955Z,9.46
2022-09-24T22:14:10.335Z,9.24
2022-09-24T22:16:36.844Z,9.25
2022-09-24T22:19:06.066Z,9.34
2022-09-24T22:21:34.257Z,9.49
2022-09-24T22:24:01.171Z,9.35
2022-09-24T22:26:29.503Z,9.20
2022-09-24T22:28:56.615Z,9.45
2022-09-24T22:31:23.238Z,9.24
2022-09-24T22:34:08.418Z,9.24
2022-09-24T22:36:36.092Z,9.40
2022-09-24T22:39:05.061Z,9.35
2022-09-24T22:41:32.642Z,9.38
2022-09-24T22:43:59.355Z,9.26
2022-09-24T22:46:26.963Z,9.41
2022-09-24T22:48:54.758Z,9.35
2022-09-24T22:51:21.260Z,9.20
2022-09-24T22:53:47.663Z,9.20
2022-09-24T22:56:16.967Z,9.28
2022-09-24T22:58:45.046Z,9.19
2022-09-24T23:01:13.567Z,9.38
2022-09-24T23:03:41.033Z,9.14
2022-09-24T23:06:08.283Z,9.20
2022-09-24T23:08:36.862Z,9.35
2022-09-24T23:11:20.117Z,9.44
2022-09-24T23:13:52.576Z,9.22
2022-09-24T23:16:25.529Z,9.31
2022-09-24T23:18:55.488Z,9.08
2022-09-24T23:21:24.007Z,9.18
2022-09-24T23:23:55.026Z,8.86
2022-09-24T23:26:22.891Z,8.84
2022-09-24T23:28:52.705Z,8.68
2022-09-24T23:31:22.145Z,8.73
2022-09-24T23:33:49.792Z,8.79
2022-09-24T23:36:16.506Z,8.69
2022-09-24T23:38:43.854Z,8.81
2022-09-24T23:41:12.900Z,8.74
2022-09-24T23:43:40.993Z,8.91
2022-09-24T23:46:08.274Z,8.96
2022-09-24T23:48:35.080Z,8.72
2022-09-24T23:51:01.481Z,8.54
2022-09-24T23:53:27.929Z,8.29
2022-09-24T23:55:55.336Z,8.54
2022-09-24T23:58:23.536Z,8.38
